Flight Track Log - Related Links

Times and Time Zones

All times are in EDT time to prevent confusion due to time zone crossing. See the RPA3869 flight status page for this flight to view local times or setup timezone preferences in your user account.

Time Position Orientation Groundspeed Altitude Reporting Facility
EDT Latitude Longitude Course Direction KTS MPH feet Rate Location/Type
Sat 04:31:40 PM 40.7167 -74.1500 316° Northwest 179 206 1,600  Level New TRACON
Sat 04:32:34 PM 40.7500 -74.0833 57° Northeast 213 245 3,300 2,158 Climbing New TRACON
Sat 04:33:34 PM 40.7833 -74.1333 311° West 200 230 5,700 2,250 Climbing New TRACON
Sat 04:34:34 PM 40.7833 -74.2000 270° West 205 236 7,800 1,550 Climbing New TRACON
Sat 04:35:34 PM 40.8000 -74.2833 285° West 240 276 8,800 1,300 Climbing New TRACON
Sat 04:36:34 PM 40.8500 -74.3333 323° Northwest 229 264 10,400 1,641 Climbing New TRACON
Sat 04:37:00 PM 41.0407 -74.5856 316° Northwest  Level FlightAware
Sat 04:37:31 PM 40.8894 -74.3917 312° West 253 291 12,000  Level New Center
Sat 04:38:31 PM 40.9375 -74.4517 317° Northwest 253 291 13,400 950 Climbing New Center
Sat 04:39:31 PM 40.9919 -74.5153 319° Northwest 253 291 13,900 254 Climbing New Center
Sat 04:40:29 PM 41.0519 -74.5900 317° Northwest 286 329 13,900  Level New Center
Sat 04:41:30 PM 41.1039 -74.6536 317° Northwest 286 329 13,900  Level New Center
Sat 04:42:30 PM 41.1592 -74.7506 307° West 292 336 13,900  Level New Center
Sat 04:43:31 PM 41.1958 -74.8353 300° West 302 348 13,900 446 Level New Center
Sat 04:44:31 PM 41.2422 -74.9403 300° West 297 342 14,800 1,350 Climbing New Center
Sat 04:45:31 PM 41.2789 -75.0225 301° West 288 331 16,600 1,729 Climbing New Center
Sat 04:46:29 PM 41.3156 -75.1022 302° West 261 300 18,200 1,424 Climbing New Center
Sat 04:47:29 PM 41.3419 -75.1731 296° West 250 288 19,400 1,140 Climbing New Center
Sat 04:48:30 PM 41.3786 -75.2528 302° West 250 288 20,500 1,091 Climbing New Center
Sat 04:49:30 PM 41.4108 -75.3325 298° West 250 288 21,600 1,041 Climbing New Center
Sat 04:50:31 PM 41.4453 -75.4122 300° West 250 288 22,600 958 Climbing New Center
Sat 04:51:29 PM 41.4794 -75.4947 299° West 250 288 23,500 712 Climbing New Center
Sat 04:52:29 PM 41.5053 -75.5825 291° West 250 288 24,000 248 Climbing New Center
Sat 04:53:30 PM 41.5322 -75.6842 290° West 262 302 24,000  Level New Center
Sat 04:54:31 PM 41.5611 -75.7889 290° West 287 330 24,000  Level New Center
Sat 04:55:29 PM 41.5961 -75.8969 293° West 305 351 24,000  Level New Center
Sat 04:56:30 PM 41.6267 -76.0103 290° West 318 366 24,000  Level New Center
Sat 04:57:30 PM 41.6592 -76.1211 291° West 318 366 24,000  Level New Center
Sat 04:58:29 PM 41.6894 -76.2347 290° West 318 366 24,000  Level New Center
Sat 04:59:29 PM 41.7217 -76.3486 291° West 318 366 24,000  Level New Center
Sat 05:00:30 PM 41.7536 -76.4625 291° West 323 372 24,000  Level New Center
Sat 05:01:30 PM 41.7944 -76.5661 298° West 323 372 24,000  Level New Center
Sat 05:02:29 PM 41.8528 -76.6519 312° West 317 365 24,000  Level New Center
Sat 05:03:30 PM 41.9108 -76.7406 311° West 317 365 24,000  Level New Center
Sat 05:04:29 PM 41.9686 -76.8294 311° West 317 365 24,000  Level New Center
Sat 05:05:24 PM 42.0289 -76.9236 311° West 320 368 24,000  Level Cleveland Center
Sat 05:06:24 PM 42.0881 -77.0156 311° West 328 377 24,000  Level Cleveland Center
Sat 05:07:24 PM 42.1392 -77.1136 305° West 323 372 24,000  Level Cleveland Center
Sat 05:08:24 PM 42.1919 -77.2114 306° West 323 372 24,000  Level Cleveland Center
Sat 05:09:24 PM 42.2450 -77.3125 305° West 328 377 24,000  Level Cleveland Center
Sat 05:10:24 PM 42.2978 -77.4136 305° West 328 377 24,000  Level Cleveland Center
Sat 05:11:24 PM 42.3506 -77.5150 305° West 328 377 24,000  Level Cleveland Center
Sat 05:12:24 PM 42.3989 -77.6028 307° West 328 377 24,000  Level Cleveland Center
Sat 05:13:24 PM 42.4517 -77.7100 304° West 328 377 24,000  Level Cleveland Center
Sat 05:14:24 PM 42.5019 -77.8092 305° West 328 377 24,000  Level Cleveland Center
Sat 05:15:24 PM 42.5564 -77.9081 307° West 328 377 24,000  Level Cleveland Center
Sat 05:16:24 PM 42.6089 -78.0131 304° West 328 377 24,000  Level Cleveland Center
Sat 05:17:24 PM 42.6611 -78.1156 305° West 328 377 24,000 -600 Level Cleveland Center
Sat 05:18:24 PM 42.7153 -78.2150 307° West 328 377 22,800 -1,300 Descending Cleveland Center
Sat 05:19:24 PM 42.7631 -78.3150 303° West 323 372 21,400 -1,450 Descending Cleveland Center
Sat 05:20:24 PM 42.8108 -78.4125 304° West 323 372 19,900 -1,500 Descending Cleveland Center
Sat 05:21:24 PM 42.8561 -78.5014 305° West 312 359 18,400 -2,950 Descending Cleveland Center
Sat 05:22:24 PM 42.9103 -78.6075 305° West 305 351 14,000 -1,350 Descending Cleveland Center
Sat 05:23:24 PM 42.9511 -78.6856 306° West 300 345 15,700 -342 Climbing Cleveland Center
Sat 05:25:02 PM 43.0333 -78.8333 307° West 300 345 13,100 -1,592 Descending Toronto Center

Login

Don't have an account? Register now (free) for customized features, flight alerts, and more!